createdAt,value
2019-02-25T00:02:00.025Z,8.80
2019-02-25T00:04:28.946Z,8.67
2019-02-25T00:06:57.778Z,7.40
2019-02-25T00:09:26.666Z,8.33
2019-02-25T00:11:55.580Z,7.00
2019-02-25T00:14:24.456Z,6.67
2019-02-25T00:16:53.322Z,9.10
2019-02-25T00:19:22.299Z,8.00
2019-02-25T00:21:51.178Z,9.30
2019-02-25T00:24:20.083Z,8.47
2019-02-25T00:26:48.906Z,7.53
2019-02-25T00:29:17.879Z,7.27
2019-02-25T00:31:46.730Z,9.57
2019-02-25T00:34:15.596Z,8.07
2019-02-25T00:36:44.430Z,9.60
2019-02-25T00:39:13.395Z,7.70
2019-02-25T00:41:42.239Z,8.60
2019-02-25T00:44:11.095Z,8.73
2019-02-25T00:46:39.928Z,7.20
2019-02-25T00:49:08.878Z,8.33
2019-02-25T00:51:37.696Z,7.17
2019-02-25T00:54:06.657Z,6.80
2019-02-25T00:56:35.459Z,8.47
2019-02-25T00:59:04.338Z,7.83
2019-02-25T01:01:33.181Z,6.30
2019-02-25T01:04:02.082Z,7.93
2019-02-25T01:06:30.940Z,8.73
2019-02-25T01:08:59.788Z,5.60
2019-02-25T01:11:28.659Z,7.10
2019-02-25T01:13:57.513Z,7.07
2019-02-25T01:16:26.378Z,7.27
2019-02-25T01:18:55.341Z,6.77
2019-02-25T01:21:24.215Z,6.43
2019-02-25T01:23:53.074Z,7.00
2019-02-25T01:26:21.985Z,7.30
2019-02-25T01:28:50.866Z,6.97
2019-02-25T01:31:19.731Z,6.60
2019-02-25T01:33:48.607Z,7.50
2019-02-25T01:36:17.546Z,6.33
2019-02-25T01:38:46.461Z,6.03
2019-02-25T01:41:15.350Z,6.50
2019-02-25T01:43:44.229Z,7.37
2019-02-25T01:46:13.074Z,6.43
2019-02-25T01:48:42.001Z,8.53
2019-02-25T01:51:10.834Z,7.33
2019-02-25T01:53:39.667Z,7.23
2019-02-25T01:56:09.018Z,6.43
2019-02-25T01:58:37.854Z,7.20
2019-02-25T02:01:06.764Z,6.63
2019-02-25T02:03:35.719Z,5.97
2019-02-25T02:06:04.593Z,7.83
2019-02-25T02:08:33.540Z,8.03
2019-02-25T02:11:02.613Z,6.63
2019-02-25T02:13:31.507Z,7.30
2019-02-25T02:16:00.399Z,7.53
2019-02-25T02:18:29.242Z,6.77
2019-02-25T02:20:58.136Z,6.97
2019-02-25T02:23:27.057Z,8.83
2019-02-25T02:25:55.963Z,7.30
2019-02-25T02:28:24.899Z,6.50
2019-02-25T02:30:53.842Z,7.50
2019-02-25T02:33:22.751Z,8.07
2019-02-25T02:35:51.582Z,8.57
2019-02-25T02:38:20.438Z,9.93
2019-02-25T02:40:49.293Z,7.20
2019-02-25T02:43:18.154Z,8.67
2019-02-25T02:45:58.661Z,6.43
2019-02-25T02:48:32.655Z,5.60
2019-02-25T02:51:01.644Z,7.93
2019-02-25T02:53:30.593Z,5.87
2019-02-25T02:55:59.532Z,7.47
2019-02-25T02:58:28.416Z,6.23
2019-02-25T03:00:57.289Z,8.23
2019-02-25T03:03:26.126Z,7.73
2019-02-25T03:05:55.111Z,6.07
2019-02-25T03:08:23.931Z,7.33
2019-02-25T03:10:52.863Z,6.17
2019-02-25T03:13:21.747Z,8.58
2019-02-25T03:15:50.662Z,8.30
2019-02-25T03:18:19.462Z,6.50
2019-02-25T03:20:48.339Z,6.93
2019-02-25T03:23:17.202Z,6.40
2019-02-25T03:25:46.074Z,7.17
2019-02-25T03:28:15.026Z,7.42
2019-02-25T03:30:43.898Z,6.30
2019-02-25T03:33:12.759Z,6.95
2019-02-25T03:35:41.685Z,7.27
2019-02-25T03:38:10.541Z,7.85
2019-02-25T03:40:39.630Z,8.18
2019-02-25T03:43:08.538Z,8.40
2019-02-25T03:45:37.421Z,8.33
2019-02-25T03:48:06.245Z,7.60
2019-02-25T03:50:35.138Z,7.23
2019-02-25T03:53:04.178Z,7.47
2019-02-25T03:55:33.276Z,11.63
2019-02-25T03:58:02.162Z,7.50
2019-02-25T04:00:31.162Z,6.33
2019-02-25T04:03:00.046Z,6.72
2019-02-25T04:05:29.053Z,9.33
2019-02-25T04:07:57.892Z,7.83
2019-02-25T04:10:26.817Z,7.92
2019-02-25T04:12:55.746Z,8.75
2019-02-25T04:15:28.831Z,8.48
2019-02-25T04:17:57.692Z,10.28
2019-02-25T04:20:26.604Z,8.30
2019-02-25T04:22:55.452Z,8.90
2019-02-25T04:25:24.423Z,7.60
2019-02-25T04:27:53.335Z,7.97
2019-02-25T04:30:22.228Z,11.80
2019-02-25T04:32:51.099Z,12.43
2019-02-25T04:35:20.089Z,11.53
2019-02-25T04:37:48.858Z,10.93
2019-02-25T04:40:17.764Z,8.43
2019-02-25T04:42:46.694Z,8.53
2019-02-25T04:45:16.361Z,9.83
2019-02-25T04:47:45.235Z,7.47
2019-02-25T04:50:14.380Z,10.38
2019-02-25T04:52:43.242Z,10.58
2019-02-25T04:55:12.122Z,10.98
2019-02-25T04:57:40.985Z,10.78
2019-02-25T05:00:13.719Z,10.23
2019-02-25T05:02:42.713Z,13.90
2019-02-25T05:05:11.585Z,10.25
2019-02-25T05:07:40.466Z,8.80
2019-02-25T05:10:10.147Z,11.68
2019-02-25T05:12:40.338Z,12.43
2019-02-25T05:15:10.451Z,9.70
2019-02-25T05:17:39.329Z,10.00
2019-02-25T05:20:08.298Z,14.78
2019-02-25T05:22:37.687Z,13.28
2019-02-25T05:25:06.823Z,14.78
2019-02-25T05:27:35.815Z,11.05
2019-02-25T05:30:04.991Z,13.55
2019-02-25T05:32:33.878Z,11.73
2019-02-25T05:35:02.743Z,14.63
2019-02-25T05:37:31.681Z,17.60
2019-02-25T05:40:00.538Z,17.65
2019-02-25T05:42:29.466Z,15.48
2019-02-25T05:44:58.346Z,14.85
2019-02-25T05:47:27.344Z,13.80
2019-02-25T05:49:56.190Z,12.07
2019-02-25T05:52:25.118Z,12.75
2019-02-25T05:54:53.952Z,13.40
2019-02-25T05:57:22.871Z,10.70
2019-02-25T05:59:51.695Z,12.30
2019-02-25T06:02:20.568Z,15.20
2019-02-25T06:04:49.393Z,12.90
2019-02-25T06:07:18.271Z,12.00
2019-02-25T06:09:47.127Z,15.13
2019-02-25T06:12:15.991Z,9.88
2019-02-25T06:14:44.839Z,12.20
2019-02-25T06:17:13.711Z,11.63
2019-02-25T06:19:42.581Z,11.43
2019-02-25T06:22:11.494Z,16.15
2019-02-25T06:24:40.711Z,14.23
2019-02-25T06:27:09.575Z,14.93
2019-02-25T06:29:38.477Z,11.25
2019-02-25T06:32:07.362Z,12.93
2019-02-25T06:34:36.235Z,10.35
2019-02-25T06:37:05.099Z,11.70
2019-02-25T06:39:33.950Z,13.83
2019-02-25T06:42:02.855Z,14.10
2019-02-25T06:44:31.795Z,22.62
2019-02-25T06:47:00.782Z,23.20
2019-02-25T06:49:29.668Z,21.82
2019-02-25T06:51:58.569Z,18.47
2019-02-25T06:54:27.773Z,18.07
2019-02-25T06:56:56.758Z,13.10
2019-02-25T06:59:25.606Z,14.87
2019-02-25T07:01:55.651Z,20.20
2019-02-25T07:04:35.498Z,17.37
2019-02-25T07:07:10.950Z,15.97
2019-02-25T07:09:57.636Z,17.70
2019-02-25T07:12:48.561Z,17.67
2019-02-25T07:15:38.477Z,14.17
2019-02-25T07:18:20.179Z,12.93
2019-02-25T07:20:55.150Z,15.07
2019-02-25T07:23:30.645Z,12.20
2019-02-25T07:26:17.122Z,12.37
2019-02-25T07:29:08.119Z,13.97
2019-02-25T07:31:45.911Z,13.43
2019-02-25T07:34:27.932Z,12.27
2019-02-25T07:37:16.264Z,13.20
2019-02-25T07:40:06.264Z,14.60
2019-02-25T07:42:45.684Z,11.83
2019-02-25T07:45:28.073Z,11.77
2019-02-25T07:48:02.743Z,11.03
2019-02-25T07:50:53.903Z,10.83
2019-02-25T07:53:53.972Z,11.97
2019-02-25T07:56:45.045Z,9.70
2019-02-25T07:59:24.319Z,8.97
2019-02-25T08:02:03.529Z,11.07
2019-02-25T08:05:03.604Z,10.00
2019-02-25T08:07:59.999Z,11.63
2019-02-25T08:10:40.215Z,11.23
2019-02-25T08:13:40.144Z,9.67
2019-02-25T08:16:19.055Z,9.70
2019-02-25T08:19:13.141Z,10.37
2019-02-25T08:21:53.286Z,8.33
2019-02-25T08:24:40.035Z,10.47
2019-02-25T08:27:26.919Z,8.03
2019-02-25T08:30:14.962Z,8.93
2019-02-25T08:32:49.782Z,8.03
2019-02-25T08:36:01.472Z,8.60
2019-02-25T08:38:52.104Z,9.00
2019-02-25T08:41:28.665Z,10.57
2019-02-25T08:44:04.828Z,8.87
2019-02-25T08:46:51.742Z,9.20
2019-02-25T08:49:24.298Z,9.17
2019-02-25T08:51:53.139Z,10.67
2019-02-25T08:54:21.981Z,8.83
2019-02-25T08:56:50.829Z,9.20
2019-02-25T08:59:19.786Z,9.30
2019-02-25T09:01:48.620Z,12.33
2019-02-25T09:04:17.499Z,8.93
2019-02-25T09:06:46.306Z,10.47
2019-02-25T09:09:15.208Z,9.67
2019-02-25T09:11:44.102Z,10.67
2019-02-25T09:14:12.977Z,11.83
2019-02-25T09:16:41.979Z,9.90
2019-02-25T09:19:10.800Z,9.53
2019-02-25T09:21:39.777Z,13.13
2019-02-25T09:24:08.601Z,9.07
2019-02-25T09:26:37.492Z,11.13
2019-02-25T09:29:06.410Z,10.27
2019-02-25T09:31:35.357Z,10.80
2019-02-25T09:34:04.307Z,9.13
2019-02-25T09:36:33.201Z,10.20
2019-02-25T09:39:02.049Z,11.53
2019-02-25T09:41:30.954Z,11.97
2019-02-25T09:43:59.760Z,9.53
2019-02-25T09:46:28.631Z,9.53
2019-02-25T09:48:57.542Z,12.40
2019-02-25T09:51:26.425Z,11.47
2019-02-25T09:53:55.313Z,11.47
2019-02-25T09:56:24.215Z,10.23
2019-02-25T09:58:53.046Z,11.43
2019-02-25T10:01:21.917Z,12.47
2019-02-25T10:03:50.783Z,11.47
2019-02-25T10:06:19.668Z,11.87
2019-02-25T10:08:48.870Z,10.90
2019-02-25T10:11:17.770Z,10.97
2019-02-25T10:13:46.573Z,12.43
2019-02-25T10:16:15.431Z,12.30
2019-02-25T10:18:44.272Z,12.23
2019-02-25T10:21:13.141Z,10.77
2019-02-25T10:23:42.104Z,10.57
2019-02-25T10:26:10.957Z,12.27
2019-02-25T10:28:39.851Z,10.80
2019-02-25T10:31:08.771Z,10.43
2019-02-25T10:33:37.624Z,11.60
2019-02-25T10:36:06.462Z,11.20
2019-02-25T10:38:37.362Z,11.13
2019-02-25T10:41:05.855Z,10.20
2019-02-25T10:43:36.556Z,11.43
2019-02-25T10:46:07.002Z,10.40
2019-02-25T10:48:35.800Z,10.87
2019-02-25T10:51:05.280Z,11.67
2019-02-25T10:53:35.345Z,10.77
2019-02-25T10:56:09.844Z,10.87
2019-02-25T10:58:38.741Z,10.50
2019-02-25T11:01:13.075Z,13.23
2019-02-25T11:03:38.154Z,12.77
2019-02-25T11:06:07.062Z,12.07
2019-02-25T11:08:37.374Z,10.57
2019-02-25T11:11:11.384Z,11.90
2019-02-25T11:13:40.567Z,10.43
2019-02-25T11:16:10.273Z,9.47
2019-02-25T11:18:40.650Z,8.63
2019-02-25T11:21:10.660Z,8.57
2019-02-25T11:23:39.723Z,10.23
2019-02-25T11:26:09.308Z,9.97
2019-02-25T11:28:39.214Z,10.10
2019-02-25T11:31:08.872Z,13.07
2019-02-25T11:33:37.864Z,9.23
2019-02-25T11:36:06.928Z,8.67
2019-02-25T11:38:37.424Z,9.40
2019-02-25T11:41:07.203Z,9.50
2019-02-25T11:43:36.928Z,10.77
2019-02-25T11:46:05.874Z,10.17
2019-02-25T11:48:34.857Z,10.07
2019-02-25T11:51:03.851Z,12.63
2019-02-25T11:53:32.839Z,10.03
2019-02-25T11:56:01.854Z,10.47
2019-02-25T11:58:30.708Z,10.10
2019-02-25T12:00:59.610Z,9.70
2019-02-25T12:03:28.602Z,9.17
2019-02-25T12:05:57.468Z,10.57
2019-02-25T12:08:26.490Z,10.33
2019-02-25T12:10:55.306Z,9.60
2019-02-25T12:13:25.185Z,11.97
2019-02-25T12:15:54.082Z,9.10
2019-02-25T12:18:23.064Z,9.97
2019-02-25T12:20:51.910Z,9.07
2019-02-25T12:23:20.786Z,9.53
2019-02-25T12:25:49.688Z,10.57
2019-02-25T12:28:18.585Z,9.60
2019-02-25T12:30:47.668Z,9.97
2019-02-25T12:33:16.544Z,8.63
2019-02-25T12:35:45.402Z,9.50
2019-02-25T12:38:14.265Z,9.73
2019-02-25T12:40:43.089Z,11.37
2019-02-25T12:43:12.085Z,10.07
2019-02-25T12:45:40.896Z,9.43
2019-02-25T12:48:09.765Z,8.37
2019-02-25T12:50:38.595Z,7.33
2019-02-25T12:53:07.446Z,7.67
2019-02-25T12:55:36.358Z,8.43
2019-02-25T12:58:05.240Z,8.07
2019-02-25T13:00:34.081Z,6.80
2019-02-25T13:03:03.083Z,6.43
2019-02-25T13:05:32.014Z,8.23
2019-02-25T13:08:00.977Z,8.80
2019-02-25T13:10:29.817Z,8.17
2019-02-25T13:12:58.697Z,8.73
2019-02-25T13:15:27.523Z,9.17
2019-02-25T13:17:56.414Z,9.43
2019-02-25T13:20:25.312Z,9.23
2019-02-25T13:22:54.186Z,8.60
2019-02-25T13:25:23.092Z,10.53
2019-02-25T13:27:52.518Z,9.37
2019-02-25T13:30:22.516Z,8.23
2019-02-25T13:32:51.338Z,9.13
2019-02-25T13:35:20.400Z,10.23
2019-02-25T13:37:49.219Z,9.20
2019-02-25T13:40:18.172Z,8.70
2019-02-25T13:42:47.104Z,9.93
2019-02-25T13:45:15.962Z,9.20
2019-02-25T13:47:44.788Z,8.93
2019-02-25T13:50:13.764Z,8.60
2019-02-25T13:52:47.875Z,10.40
2019-02-25T13:55:13.336Z,7.77
2019-02-25T13:57:42.225Z,8.83
2019-02-25T14:00:14.145Z,9.57
2019-02-25T14:02:43.195Z,8.23
2019-02-25T14:05:12.068Z,7.57
2019-02-25T14:07:40.870Z,7.37
2019-02-25T14:10:10.444Z,7.57
2019-02-25T14:12:39.287Z,8.03
2019-02-25T14:15:08.806Z,9.00
2019-02-25T14:17:37.962Z,8.33
2019-02-25T14:20:09.490Z,7.70
2019-02-25T14:22:38.293Z,7.03
2019-02-25T14:25:08.083Z,7.70
2019-02-25T14:27:36.948Z,7.73
2019-02-25T14:30:07.483Z,7.00
2019-02-25T14:32:37.191Z,7.00
2019-02-25T14:35:07.884Z,8.00
2019-02-25T14:37:36.895Z,6.10
2019-02-25T14:40:08.268Z,5.90
2019-02-25T14:42:36.873Z,5.83
2019-02-25T14:45:09.452Z,5.70
2019-02-25T14:47:40.004Z,7.10
2019-02-25T14:50:10.887Z,7.20
2019-02-25T14:52:39.785Z,5.70
2019-02-25T14:55:09.415Z,4.17
2019-02-25T14:57:40.874Z,5.57
2019-02-25T15:00:11.831Z,5.67
2019-02-25T15:02:41.387Z,4.97
2019-02-25T15:05:12.735Z,8.60
2019-02-25T15:07:42.885Z,5.70
2019-02-25T15:10:12.607Z,6.73
2019-02-25T15:12:41.578Z,6.50
2019-02-25T15:15:11.494Z,7.27
2019-02-25T15:17:41.901Z,11.20
2019-02-25T15:20:12.550Z,10.60
2019-02-25T15:22:42.458Z,16.60
2019-02-25T15:25:13.643Z,6.37
2019-02-25T15:27:42.610Z,9.57
2019-02-25T15:30:13.167Z,8.50
2019-02-25T15:32:54.819Z,8.07
2019-02-25T15:35:12.810Z,7.23
2019-02-25T15:37:44.468Z,7.97
2019-02-25T15:40:14.027Z,10.07
2019-02-25T15:42:44.010Z,7.87
2019-02-25T15:45:14.914Z,7.60
2019-02-25T15:47:44.818Z,8.10
2019-02-25T15:50:15.138Z,7.67
2019-02-25T15:52:43.991Z,8.93
2019-02-25T15:55:15.241Z,8.03
2019-02-25T15:57:43.805Z,7.97
2019-02-25T16:00:14.487Z,8.80
2019-02-25T16:02:43.430Z,7.10
2019-02-25T16:05:12.522Z,11.87
2019-02-25T16:07:41.472Z,8.53
2019-02-25T16:10:12.016Z,10.30
2019-02-25T16:12:41.228Z,6.63
2019-02-25T16:15:11.502Z,9.17
2019-02-25T16:17:41.742Z,8.93
2019-02-25T16:20:11.047Z,12.17
2019-02-25T16:22:40.784Z,8.47
2019-02-25T16:25:11.595Z,9.30
2019-02-25T16:27:41.189Z,9.63
2019-02-25T16:30:11.814Z,11.40
2019-02-25T16:32:42.166Z,9.97
2019-02-25T16:35:11.559Z,11.33
2019-02-25T16:37:42.580Z,21.17
2019-02-25T16:40:11.342Z,15.27
2019-02-25T16:42:41.376Z,9.23
2019-02-25T16:45:13.638Z,18.20
2019-02-25T16:47:42.425Z,12.27
2019-02-25T16:50:13.743Z,13.27
2019-02-25T16:52:44.591Z,10.40
2019-02-25T16:55:15.335Z,14.87
2019-02-25T16:57:45.559Z,16.03
2019-02-25T17:00:15.333Z,10.83
2019-02-25T17:02:44.890Z,9.50
2019-02-25T17:05:13.936Z,11.90
2019-02-25T17:07:44.304Z,9.10
2019-02-25T17:10:14.395Z,11.47
2019-02-25T17:12:43.783Z,10.27
2019-02-25T17:15:14.568Z,9.60
2019-02-25T17:17:43.430Z,8.80
2019-02-25T17:20:13.194Z,14.77
2019-02-25T17:22:42.036Z,10.50
2019-02-25T17:25:12.116Z,9.93
2019-02-25T17:27:41.304Z,8.27
2019-02-25T17:30:13.158Z,8.80
2019-02-25T17:32:44.090Z,10.07
2019-02-25T17:35:13.298Z,9.93
2019-02-25T17:37:42.149Z,11.57
2019-02-25T17:40:13.167Z,11.37
2019-02-25T17:42:42.122Z,8.20
2019-02-25T17:45:12.407Z,8.97
2019-02-25T17:47:41.941Z,8.07
2019-02-25T17:50:12.335Z,7.20
2019-02-25T17:52:43.088Z,13.40
2019-02-25T17:55:12.950Z,15.40
2019-02-25T17:57:42.138Z,12.30
2019-02-25T18:00:15.063Z,14.73
2019-02-25T18:02:44.027Z,10.10
2019-02-25T18:05:14.265Z,11.50
2019-02-25T18:07:44.756Z,10.17
2019-02-25T18:10:14.340Z,13.07
2019-02-25T18:12:43.196Z,9.13
2019-02-25T18:15:13.981Z,10.60
2019-02-25T18:17:44.590Z,8.03
2019-02-25T18:20:13.589Z,11.07
2019-02-25T18:22:42.497Z,11.13
2019-02-25T18:25:11.560Z,9.57
2019-02-25T18:27:41.516Z,11.33
2019-02-25T18:30:11.145Z,17.67
2019-02-25T18:32:40.501Z,20.57
2019-02-25T18:35:09.801Z,12.90
2019-02-25T18:37:39.711Z,11.47
2019-02-25T18:40:11.333Z,13.30
2019-02-25T18:42:40.859Z,12.97
2019-02-25T18:45:11.617Z,11.77
2019-02-25T18:47:41.573Z,10.77
2019-02-25T18:50:15.155Z,11.00
2019-02-25T18:52:42.894Z,10.27
2019-02-25T18:55:12.331Z,11.37
2019-02-25T18:57:41.704Z,9.03
2019-02-25T19:00:12.566Z,11.00
2019-02-25T19:02:42.293Z,10.23
2019-02-25T19:05:13.858Z,10.50
2019-02-25T19:07:41.874Z,10.20
2019-02-25T19:10:12.494Z,14.47
2019-02-25T19:12:41.420Z,14.00
2019-02-25T19:15:10.511Z,9.93
2019-02-25T19:17:39.579Z,10.17
2019-02-25T19:20:08.538Z,15.23
2019-02-25T19:22:39.815Z,10.83
2019-02-25T19:25:10.101Z,8.60
2019-02-25T19:27:39.911Z,13.13
2019-02-25T19:30:09.470Z,10.23
2019-02-25T19:32:40.433Z,8.63
2019-02-25T19:35:10.067Z,10.10
2019-02-25T19:37:40.565Z,10.17
2019-02-25T19:40:12.554Z,9.50
2019-02-25T19:42:43.111Z,8.67
2019-02-25T19:45:11.748Z,8.83
2019-02-25T19:47:43.122Z,12.13
2019-02-25T19:50:11.758Z,8.73
2019-02-25T19:52:41.968Z,9.33
2019-02-25T19:55:13.028Z,10.10
2019-02-25T19:57:42.581Z,12.10
2019-02-25T20:00:14.901Z,10.70
2019-02-25T20:02:43.925Z,9.27
2019-02-25T20:05:14.227Z,10.43
2019-02-25T20:07:43.447Z,13.37
2019-02-25T20:10:13.689Z,10.20
2019-02-25T20:12:42.959Z,10.67
2019-02-25T20:15:13.561Z,11.80
2019-02-25T20:17:45.824Z,10.23
2019-02-25T20:20:14.983Z,13.03
2019-02-25T20:22:43.967Z,10.10
2019-02-25T20:25:16.294Z,10.77
2019-02-25T20:27:43.564Z,8.37
2019-02-25T20:30:13.619Z,10.80
2019-02-25T20:32:42.926Z,12.63
2019-02-25T20:35:13.948Z,16.83
2019-02-25T20:37:42.987Z,16.50
2019-02-25T20:40:11.878Z,12.87
2019-02-25T20:42:40.723Z,10.67
2019-02-25T20:45:12.833Z,14.00
2019-02-25T20:47:41.895Z,9.60
2019-02-25T20:50:11.987Z,7.93
2019-02-25T20:52:42.401Z,9.87
2019-02-25T20:55:13.274Z,11.43
2019-02-25T20:57:42.136Z,10.07
2019-02-25T21:00:13.253Z,12.93
2019-02-25T21:02:43.288Z,9.93
2019-02-25T21:05:14.701Z,12.83
2019-02-25T21:07:42.737Z,8.70
2019-02-25T21:10:12.364Z,8.73
2019-02-25T21:12:43.146Z,9.70
2019-02-25T21:15:12.613Z,11.67
2019-02-25T21:17:41.450Z,10.03
2019-02-25T21:20:11.369Z,12.60
2019-02-25T21:22:40.181Z,10.40
2019-02-25T21:25:09.327Z,10.33
2019-02-25T21:27:39.553Z,9.17
2019-02-25T21:30:10.289Z,10.67
2019-02-25T21:32:40.594Z,10.00
2019-02-25T21:35:10.518Z,7.70
2019-02-25T21:37:43.382Z,6.97
2019-02-25T21:40:11.473Z,7.60
2019-02-25T21:42:41.687Z,8.70
2019-02-25T21:45:11.498Z,9.40
2019-02-25T21:47:40.348Z,9.53
2019-02-25T21:50:11.898Z,9.87
2019-02-25T21:52:41.692Z,8.10
2019-02-25T21:55:11.714Z,8.10
2019-02-25T21:57:40.643Z,14.77
2019-02-25T22:00:11.066Z,9.80
2019-02-25T22:02:41.435Z,10.77
2019-02-25T22:05:12.254Z,12.63
2019-02-25T22:07:41.151Z,15.20
2019-02-25T22:10:10.520Z,10.50
2019-02-25T22:12:40.530Z,10.97
2019-02-25T22:15:12.688Z,13.47
2019-02-25T22:17:43.379Z,10.27
2019-02-25T22:20:14.349Z,11.10
2019-02-25T22:22:42.856Z,10.77
2019-02-25T22:25:14.024Z,9.60
2019-02-25T22:27:43.855Z,10.13
2019-02-25T22:30:14.472Z,13.63
2019-02-25T22:32:43.469Z,12.63
2019-02-25T22:35:14.932Z,9.67
2019-02-25T22:37:46.730Z,11.60
2019-02-25T22:40:15.107Z,10.93
2019-02-25T22:42:44.082Z,12.47
2019-02-25T22:45:14.217Z,16.10
2019-02-25T22:47:44.187Z,15.47
2019-02-25T22:50:15.120Z,11.07
2019-02-25T22:52:43.665Z,13.00
2019-02-25T22:55:14.847Z,12.60
2019-02-25T22:57:43.908Z,12.33
2019-02-25T23:00:25.010Z,11.00
2019-02-25T23:02:54.679Z,9.90
2019-02-25T23:05:25.503Z,11.20
2019-02-25T23:07:54.764Z,11.40
2019-02-25T23:10:24.203Z,10.07
2019-02-25T23:12:53.360Z,10.17
2019-02-25T23:15:23.266Z,13.33
2019-02-25T23:17:52.775Z,12.80
2019-02-25T23:20:23.039Z,12.97
2019-02-25T23:22:53.039Z,13.47
2019-02-25T23:25:22.777Z,10.47
2019-02-25T23:27:53.419Z,10.47
2019-02-25T23:30:23.445Z,9.90
2019-02-25T23:32:54.455Z,15.43
2019-02-25T23:35:25.279Z,10.43
2019-02-25T23:37:56.270Z,11.93
2019-02-25T23:40:24.757Z,13.70
2019-02-25T23:42:53.568Z,13.73
2019-02-25T23:45:23.175Z,16.80
2019-02-25T23:47:55.115Z,12.17
2019-02-25T23:50:25.101Z,13.30
2019-02-25T23:52:53.957Z,13.60
2019-02-25T23:55:24.941Z,13.83
2019-02-25T23:57:53.464Z,12.97
